createdAt,value
2023-03-02T00:00:47.983Z,101658.41
2023-03-02T00:03:18.328Z,101661.50
2023-03-02T00:05:47.286Z,101660.84
2023-03-02T00:08:16.782Z,101659.75
2023-03-02T00:10:43.359Z,101661.13
2023-03-02T00:13:10.800Z,101662.50
2023-03-02T00:15:37.283Z,101669.94
2023-03-02T00:18:03.887Z,101671.94
2023-03-02T00:20:30.385Z,101672.59
2023-03-02T00:22:56.801Z,101673.16
2023-03-02T00:25:23.342Z,101680.31
2023-03-02T00:27:49.841Z,101683.91
2023-03-02T00:30:16.956Z,101677.75
2023-03-02T00:32:44.250Z,101668.13
2023-03-02T00:35:11.172Z,101678.94
2023-03-02T00:37:38.330Z,101686.47
2023-03-02T00:40:07.129Z,101677.97
2023-03-02T00:42:33.767Z,101672.50
2023-03-02T00:45:01.436Z,101674.56
2023-03-02T00:47:29.776Z,101677.31
2023-03-02T00:49:56.855Z,101668.78
2023-03-02T00:52:23.322Z,101673.34
2023-03-02T00:54:50.105Z,101672.84
2023-03-02T00:57:16.635Z,101660.69
2023-03-02T00:59:43.137Z,101661.19
2023-03-02T01:02:10.545Z,101666.84
2023-03-02T01:04:42.707Z,101658.13
2023-03-02T01:07:14.952Z,101666.44
2023-03-02T01:09:43.974Z,101657.28
2023-03-02T01:12:11.383Z,101665.16
2023-03-02T01:14:39.368Z,101647.34
2023-03-02T01:17:07.614Z,101648.19
2023-03-02T01:19:34.408Z,101636.38
2023-03-02T01:22:00.849Z,101643.81
2023-03-02T01:24:27.622Z,101638.19
2023-03-02T01:26:54.415Z,101631.69
2023-03-02T01:29:21.112Z,101633.38
2023-03-02T01:31:47.688Z,101630.94
2023-03-02T01:34:14.321Z,101635.31
2023-03-02T01:36:40.834Z,101621.66
2023-03-02T01:39:07.312Z,101622.19
2023-03-02T01:41:33.802Z,101619.53
2023-03-02T01:44:00.208Z,101614.31
2023-03-02T01:46:29.945Z,101609.94
2023-03-02T01:49:03.341Z,101608.09
2023-03-02T01:51:34.651Z,101603.75
2023-03-02T01:54:08.538Z,101603.75
2023-03-02T01:56:39.454Z,101602.25
2023-03-02T01:59:11.799Z,101590.94
2023-03-02T02:01:40.978Z,101596.06
2023-03-02T02:04:07.524Z,101594.06
2023-03-02T02:06:46.468Z,101594.38
2023-03-02T02:09:16.291Z,101595.31
2023-03-02T02:11:44.131Z,101579.13
2023-03-02T02:14:10.593Z,101597.16
2023-03-02T02:16:37.729Z,101587.31
2023-03-02T02:19:25.937Z,101594.38
2023-03-02T02:21:52.363Z,101592.13
2023-03-02T02:24:24.978Z,101597.78
2023-03-02T02:26:56.080Z,101588.81
2023-03-02T02:29:30.279Z,101587.34
2023-03-02T02:32:20.555Z,101587.53
2023-03-02T02:35:02.402Z,101588.91
2023-03-02T02:37:38.292Z,101587.34
2023-03-02T02:40:09.528Z,101586.97
2023-03-02T02:42:41.773Z,101578.78
2023-03-02T02:45:19.982Z,101585.09
2023-03-02T02:47:47.471Z,101584.91
2023-03-02T02:50:24.033Z,101578.38
2023-03-02T02:52:58.026Z,101574.91
2023-03-02T02:55:25.949Z,101582.44
2023-03-02T02:57:56.397Z,101583.69
2023-03-02T03:00:23.357Z,101579.09
2023-03-02T03:03:06.249Z,101588.91
2023-03-02T03:05:32.729Z,101581.53
2023-03-02T03:08:49.920Z,101583.69
2023-03-02T03:11:23.290Z,101584.09
2023-03-02T03:14:21.456Z,101579.28
2023-03-02T03:16:50.147Z,101573.56
2023-03-02T03:19:25.742Z,101576.31
2023-03-02T03:21:55.346Z,101577.41
2023-03-02T03:24:23.078Z,101578.66
2023-03-02T03:26:50.060Z,101575.94
2023-03-02T03:29:18.134Z,101577.00
2023-03-02T03:31:45.202Z,101580.16
2023-03-02T03:34:11.801Z,101567.06
2023-03-02T03:36:38.358Z,101569.88
2023-03-02T03:39:06.211Z,101571.44
2023-03-02T03:41:32.971Z,101575.72
2023-03-02T03:43:59.758Z,101564.25
2023-03-02T03:46:26.285Z,101569.81
2023-03-02T03:48:52.791Z,101570.69
2023-03-02T03:51:19.290Z,101580.22
2023-03-02T03:53:45.958Z,101578.44
2023-03-02T03:56:12.603Z,101577.44
2023-03-02T03:58:39.077Z,101567.88
2023-03-02T04:01:07.678Z,101551.06
2023-03-02T04:03:34.166Z,101576.63
2023-03-02T04:06:00.638Z,101570.06
2023-03-02T04:08:27.142Z,101570.56
2023-03-02T04:10:53.601Z,101572.09
2023-03-02T04:13:20.151Z,101566.81
2023-03-02T04:15:47.207Z,101575.22
2023-03-02T04:18:13.835Z,101576.69
2023-03-02T04:20:40.297Z,101569.50
2023-03-02T04:23:06.795Z,101564.47
2023-03-02T04:25:33.275Z,101567.81
2023-03-02T04:27:59.830Z,101573.81
2023-03-02T04:30:26.699Z,101560.91
2023-03-02T04:32:53.374Z,101573.88
2023-03-02T04:35:20.113Z,101572.53
2023-03-02T04:37:47.001Z,101567.19
2023-03-02T04:40:14.462Z,101568.31
2023-03-02T04:42:41.737Z,101558.16
2023-03-02T04:45:08.755Z,101565.66
2023-03-02T04:47:35.316Z,101564.75
2023-03-02T04:50:01.774Z,101562.91
2023-03-02T04:52:28.263Z,101571.28
2023-03-02T04:54:54.948Z,101560.28
2023-03-02T04:57:21.394Z,101559.72
2023-03-02T04:59:47.877Z,101561.06
2023-03-02T05:02:14.314Z,101559.94
2023-03-02T05:04:42.339Z,101556.63
2023-03-02T05:07:09.179Z,101546.19
2023-03-02T05:09:35.663Z,101549.25
2023-03-02T05:12:02.155Z,101551.31
2023-03-02T05:14:29.671Z,101553.19
2023-03-02T05:16:56.255Z,101556.28
2023-03-02T05:19:22.853Z,101563.13
2023-03-02T05:21:49.467Z,101564.44
2023-03-02T05:24:16.296Z,101552.84
2023-03-02T05:26:42.808Z,101565.03
2023-03-02T05:29:09.382Z,101567.97
2023-03-02T05:31:41.400Z,101570.06
2023-03-02T05:34:10.947Z,101568.38
2023-03-02T05:36:37.912Z,101570.69
2023-03-02T05:39:05.498Z,101567.78
2023-03-02T05:41:31.985Z,101575.22
2023-03-02T05:43:58.715Z,101576.34
2023-03-02T05:46:25.779Z,101579.53
2023-03-02T05:48:52.360Z,101582.69
2023-03-02T05:51:18.831Z,101579.28
2023-03-02T05:53:45.279Z,101580.59
2023-03-02T05:56:11.835Z,101577.16
2023-03-02T05:58:38.520Z,101560.28
2023-03-02T06:01:08.826Z,101576.78
2023-03-02T06:03:35.406Z,101572.25
2023-03-02T06:06:01.900Z,101578.13
2023-03-02T06:08:28.467Z,101573.47
2023-03-02T06:10:57.853Z,101578.13
2023-03-02T06:13:24.368Z,101581.63
2023-03-02T06:15:50.877Z,101581.53
2023-03-02T06:18:17.404Z,101576.97
2023-03-02T06:20:44.061Z,101571.91
2023-03-02T06:23:11.596Z,101581.31
2023-03-02T06:25:39.436Z,101587.59
2023-03-02T06:28:05.950Z,101585.91
2023-03-02T06:30:32.403Z,101590.84
2023-03-02T06:32:59.824Z,101585.63
2023-03-02T06:35:26.387Z,101591.63
2023-03-02T06:37:52.933Z,101593.31
2023-03-02T06:40:21.531Z,101582.97
2023-03-02T06:42:48.133Z,101596.84
2023-03-02T06:45:14.689Z,101592.34
2023-03-02T06:47:41.469Z,101589.31
2023-03-02T06:50:09.274Z,101552.50
2023-03-02T06:52:35.874Z,101590.94
2023-03-02T06:55:03.268Z,101591.03
2023-03-02T06:57:33.741Z,101600.03
2023-03-02T07:00:10.059Z,101598.09
2023-03-02T07:02:37.425Z,101607.28
2023-03-02T07:05:05.242Z,101601.00
2023-03-02T07:07:31.903Z,101611.34
2023-03-02T07:09:58.566Z,101609.97
2023-03-02T07:12:25.391Z,101610.81
2023-03-02T07:14:51.984Z,101607.75
2023-03-02T07:17:18.900Z,101607.56
2023-03-02T07:19:45.521Z,101600.88
2023-03-02T07:22:12.199Z,101603.13
2023-03-02T07:24:38.833Z,101594.94
2023-03-02T07:27:05.539Z,101598.13
2023-03-02T07:29:32.471Z,101601.34
2023-03-02T07:32:02.160Z,101592.06
2023-03-02T07:34:28.997Z,101599.59
2023-03-02T07:36:55.705Z,101598.00
2023-03-02T07:39:22.338Z,101601.06
2023-03-02T07:41:49.351Z,101593.19
2023-03-02T07:44:16.115Z,101581.03
2023-03-02T07:46:42.963Z,101597.03
2023-03-02T07:49:09.644Z,101574.56
2023-03-02T07:51:36.292Z,101597.94
2023-03-02T07:54:04.962Z,101598.59
2023-03-02T07:56:31.786Z,101599.69
2023-03-02T07:58:58.694Z,101603.09
2023-03-02T08:01:25.817Z,101606.28
2023-03-02T08:03:53.100Z,101603.63
2023-03-02T08:06:20.129Z,101599.25
2023-03-02T08:08:47.782Z,101595.75
2023-03-02T08:11:17.817Z,101601.72
2023-03-02T08:13:45.060Z,101599.94
2023-03-02T08:16:13.544Z,101595.88
2023-03-02T08:18:41.163Z,101594.69
2023-03-02T08:21:16.382Z,101604.63
2023-03-02T08:23:43.618Z,101600.34
2023-03-02T08:26:13.189Z,101603.50
2023-03-02T08:28:40.818Z,101595.19
2023-03-02T08:31:08.809Z,101595.81
2023-03-02T08:33:36.284Z,101604.75
2023-03-02T08:36:16.797Z,101599.59
2023-03-02T08:38:44.043Z,101602.09
2023-03-02T08:41:17.456Z,101597.56
2023-03-02T08:43:44.438Z,101587.66
2023-03-02T08:46:13.099Z,101588.78
2023-03-02T08:48:40.208Z,101592.38
2023-03-02T08:51:10.322Z,101589.00
2023-03-02T08:53:39.821Z,101583.72
2023-03-02T08:56:16.430Z,101577.34
2023-03-02T08:58:43.413Z,101580.38
2023-03-02T09:01:24.559Z,101573.09
2023-03-02T09:03:51.910Z,101573.47
2023-03-02T09:06:18.959Z,101573.25
2023-03-02T09:08:45.654Z,101574.34
2023-03-02T09:11:12.496Z,101572.53
2023-03-02T09:13:39.601Z,101567.91
2023-03-02T09:16:08.391Z,101566.84
2023-03-02T09:18:35.930Z,101576.09
2023-03-02T09:21:02.969Z,101577.53
2023-03-02T09:23:29.631Z,101567.34
2023-03-02T09:25:56.341Z,101554.69
2023-03-02T09:28:23.117Z,101574.28
2023-03-02T09:30:52.189Z,101563.97
2023-03-02T09:33:19.782Z,101559.81
2023-03-02T09:35:47.493Z,101560.28
2023-03-02T09:38:18.483Z,101554.47
2023-03-02T09:41:19.390Z,101562.72
2023-03-02T09:43:55.590Z,101557.38
2023-03-02T09:46:51.563Z,101558.56
2023-03-02T09:49:28.624Z,101554.66
2023-03-02T09:52:22.181Z,101548.56
2023-03-02T09:54:48.836Z,101552.13
2023-03-02T09:57:38.449Z,101552.00
2023-03-02T10:00:19.106Z,101545.88
2023-03-02T10:02:46.755Z,101546.59
2023-03-02T10:05:18.743Z,101546.16
2023-03-02T10:07:47.349Z,101546.16
2023-03-02T10:10:29.194Z,101523.00
2023-03-02T10:13:22.020Z,101540.59
2023-03-02T10:16:28.531Z,101539.44
2023-03-02T10:19:07.742Z,101548.88
2023-03-02T10:21:39.705Z,101539.59
2023-03-02T10:24:47.140Z,101536.88
2023-03-02T10:27:34.624Z,101528.84
2023-03-02T10:30:06.262Z,101538.31
2023-03-02T10:32:38.024Z,101531.91
2023-03-02T10:35:16.122Z,101521.47
2023-03-02T10:37:42.927Z,101517.31
2023-03-02T10:40:40.768Z,101523.41
2023-03-02T10:43:15.261Z,101513.00
2023-03-02T10:45:42.057Z,101517.97
2023-03-02T10:48:12.835Z,101507.34
2023-03-02T10:50:39.907Z,101509.34
2023-03-02T10:53:08.622Z,101502.81
2023-03-02T10:55:35.346Z,101502.53
2023-03-02T10:58:18.906Z,101507.38
2023-03-02T11:00:56.024Z,101490.00
2023-03-02T11:03:23.720Z,101495.38
2023-03-02T11:05:50.524Z,101494.25
2023-03-02T11:08:20.434Z,101499.19
2023-03-02T11:11:02.041Z,101493.81
2023-03-02T11:13:34.741Z,101495.31
2023-03-02T11:16:03.265Z,101491.25
2023-03-02T11:18:44.621Z,101486.63
2023-03-02T11:21:19.895Z,101486.41
2023-03-02T11:23:57.708Z,101488.09
2023-03-02T11:26:33.642Z,101477.66
2023-03-02T11:29:05.196Z,101474.25
2023-03-02T11:31:40.672Z,101481.31
2023-03-02T11:34:35.683Z,101477.19
2023-03-02T11:37:23.823Z,101474.22
2023-03-02T11:39:55.340Z,101471.13
2023-03-02T11:42:30.703Z,101466.59
2023-03-02T11:45:01.833Z,101466.31
2023-03-02T11:47:31.579Z,101461.50
2023-03-02T11:50:03.661Z,101461.34
2023-03-02T11:52:33.651Z,101456.94
2023-03-02T11:55:12.272Z,101457.06
2023-03-02T11:58:05.464Z,101448.41
2023-03-02T12:00:42.346Z,101447.41
2023-03-02T12:03:14.827Z,101450.75
2023-03-02T12:05:47.179Z,101450.41
2023-03-02T12:08:19.858Z,101456.47
2023-03-02T12:10:56.966Z,101440.13
2023-03-02T12:13:34.020Z,101446.38
2023-03-02T12:16:01.039Z,101445.09
2023-03-02T12:18:40.785Z,101444.91
2023-03-02T12:21:17.172Z,101441.28
2023-03-02T12:23:49.764Z,101438.50
2023-03-02T12:26:19.213Z,101439.19
2023-03-02T12:29:00.494Z,101403.59
2023-03-02T12:31:39.349Z,101434.50
2023-03-02T12:34:25.929Z,101422.63
2023-03-02T12:36:57.877Z,101421.50
2023-03-02T12:39:41.463Z,101412.72
2023-03-02T12:42:41.155Z,101415.19
2023-03-02T12:45:26.452Z,101411.94
2023-03-02T12:48:02.498Z,101401.47
2023-03-02T12:50:33.815Z,101403.41
2023-03-02T12:53:03.118Z,101394.69
2023-03-02T12:55:29.841Z,101384.38
2023-03-02T12:58:01.583Z,101380.47
2023-03-02T13:00:34.241Z,101386.38
2023-03-02T13:03:09.643Z,101384.81
2023-03-02T13:05:36.267Z,101373.09
2023-03-02T13:08:04.524Z,101382.50
2023-03-02T13:10:42.949Z,101361.75
2023-03-02T13:13:26.138Z,101367.31
2023-03-02T13:15:59.060Z,101370.16
2023-03-02T13:18:31.890Z,101358.56
2023-03-02T13:21:00.157Z,101359.19
2023-03-02T13:23:28.235Z,101354.53
2023-03-02T13:26:05.523Z,101348.50
2023-03-02T13:28:38.237Z,101348.34
2023-03-02T13:31:25.333Z,101347.75
2023-03-02T13:33:53.660Z,101345.91
2023-03-02T13:36:30.563Z,101345.75
2023-03-02T13:38:59.560Z,101338.53
2023-03-02T13:41:34.318Z,101337.75
2023-03-02T13:44:17.091Z,101297.19
2023-03-02T13:46:43.675Z,101332.09
2023-03-02T13:49:11.525Z,101324.66
2023-03-02T13:51:47.126Z,101325.34
2023-03-02T13:54:22.466Z,101322.09
2023-03-02T13:56:50.951Z,101322.13
2023-03-02T13:59:19.327Z,101314.22
2023-03-02T14:01:46.821Z,101310.97
2023-03-02T14:04:14.992Z,101309.50
2023-03-02T14:06:41.513Z,101312.53
2023-03-02T14:09:07.975Z,101306.13
2023-03-02T14:11:38.539Z,101313.22
2023-03-02T14:14:06.301Z,101304.78
2023-03-02T14:16:35.964Z,101307.16
2023-03-02T14:19:03.495Z,101292.81
2023-03-02T14:21:30.192Z,101297.84
2023-03-02T14:23:58.829Z,101287.56
2023-03-02T14:26:38.325Z,101279.81
2023-03-02T14:29:09.926Z,101293.47
2023-03-02T14:31:36.527Z,101291.63
2023-03-02T14:34:03.183Z,101282.31
2023-03-02T14:36:33.547Z,101291.94
2023-03-02T14:39:04.323Z,101278.59
2023-03-02T14:41:34.399Z,101275.38
2023-03-02T14:44:04.930Z,101273.03
2023-03-02T14:46:31.593Z,101279.09
2023-03-02T14:48:58.186Z,101285.88
2023-03-02T14:51:28.215Z,101270.81
2023-03-02T14:53:58.934Z,101267.25
2023-03-02T14:56:25.654Z,101270.94
2023-03-02T14:58:53.289Z,101271.97
2023-03-02T15:01:20.539Z,101265.53
2023-03-02T15:03:47.280Z,101269.63
2023-03-02T15:06:26.765Z,101267.72
2023-03-02T15:08:54.064Z,101264.53
2023-03-02T15:11:20.603Z,101261.00
2023-03-02T15:13:47.351Z,101259.97
2023-03-02T15:16:14.196Z,101263.34
2023-03-02T15:18:41.080Z,101265.19
2023-03-02T15:21:20.502Z,101267.06
2023-03-02T15:23:46.890Z,101261.66
2023-03-02T15:26:14.321Z,101258.13
2023-03-02T15:28:41.420Z,101262.38
2023-03-02T15:31:14.262Z,101259.00
2023-03-02T15:33:41.687Z,101263.53
2023-03-02T15:36:08.737Z,101268.09
2023-03-02T15:38:36.610Z,101270.28
2023-03-02T15:41:07.874Z,101271.63
2023-03-02T15:43:34.375Z,101269.94
2023-03-02T15:46:02.228Z,101273.19
2023-03-02T15:48:29.889Z,101276.72
2023-03-02T15:51:00.812Z,101271.81
2023-03-02T15:53:29.101Z,101277.56
2023-03-02T15:55:56.116Z,101278.41
2023-03-02T15:58:22.967Z,101269.78
2023-03-02T16:00:50.024Z,101278.59
2023-03-02T16:03:16.917Z,101274.53
2023-03-02T16:05:43.441Z,101274.69
2023-03-02T16:08:09.970Z,101280.63
2023-03-02T16:10:36.684Z,101278.09
2023-03-02T16:13:04.877Z,101278.59
2023-03-02T16:15:36.979Z,101272.00
2023-03-02T16:18:03.479Z,101266.63
2023-03-02T16:20:29.988Z,101268.31
2023-03-02T16:22:56.472Z,101283.34
2023-03-02T16:25:24.816Z,101277.09
2023-03-02T16:27:53.397Z,101277.78
2023-03-02T16:30:22.790Z,101263.91
2023-03-02T16:32:49.861Z,101293.47
2023-03-02T16:35:16.350Z,101294.81
2023-03-02T16:37:44.328Z,101296.00
2023-03-02T16:40:12.616Z,101293.97
2023-03-02T16:42:40.954Z,101298.69
2023-03-02T16:45:07.979Z,101303.25
2023-03-02T16:47:34.456Z,101310.84
2023-03-02T16:50:01.018Z,101307.78
2023-03-02T16:52:27.536Z,101322.13
2023-03-02T16:54:54.033Z,101313.50
2023-03-02T16:57:20.512Z,101318.72
2023-03-02T16:59:47.219Z,101315.50
2023-03-02T17:02:13.709Z,101327.66
2023-03-02T17:04:40.486Z,101332.38
2023-03-02T17:07:07.696Z,101327.28
2023-03-02T17:09:36.031Z,101347.84
2023-03-02T17:12:02.606Z,101340.03
2023-03-02T17:14:29.215Z,101334.63
2023-03-02T17:16:59.148Z,101349.09
2023-03-02T17:19:29.726Z,101348.75
2023-03-02T17:21:58.247Z,101353.47
2023-03-02T17:24:25.040Z,101350.41
2023-03-02T17:26:51.512Z,101349.06
2023-03-02T17:29:18.102Z,101355.09
2023-03-02T17:31:44.934Z,101359.94
2023-03-02T17:34:11.950Z,101362.97
2023-03-02T17:36:38.554Z,101373.09
2023-03-02T17:39:05.491Z,101374.56
2023-03-02T17:41:33.070Z,101374.88
2023-03-02T17:44:00.517Z,101378.38
2023-03-02T17:46:27.819Z,101379.22
2023-03-02T17:48:56.902Z,101380.69
2023-03-02T17:51:25.775Z,101380.16
2023-03-02T17:53:53.639Z,101395.97
2023-03-02T17:56:22.854Z,101394.59
2023-03-02T17:59:00.650Z,101396.91
2023-03-02T18:01:28.581Z,101399.06
2023-03-02T18:03:55.701Z,101403.63
2023-03-02T18:06:22.351Z,101404.25
2023-03-02T18:08:50.400Z,101400.19
2023-03-02T18:11:19.890Z,101417.63
2023-03-02T18:13:46.684Z,101414.28
2023-03-02T18:16:13.268Z,101416.41
2023-03-02T18:18:39.763Z,101413.34
2023-03-02T18:21:06.784Z,101429.66
2023-03-02T18:23:33.685Z,101434.66
2023-03-02T18:26:00.136Z,101429.97
2023-03-02T18:28:26.654Z,101428.59
2023-03-02T18:30:53.213Z,101431.75
2023-03-02T18:33:19.827Z,101439.97
2023-03-02T18:35:46.303Z,101446.81
2023-03-02T18:38:12.770Z,101440.88
2023-03-02T18:40:39.353Z,101448.25
2023-03-02T18:43:05.850Z,101448.59
2023-03-02T18:45:32.699Z,101449.19
2023-03-02T18:48:00.218Z,101454.00
2023-03-02T18:50:27.996Z,101458.00
2023-03-02T18:52:54.744Z,101448.28
2023-03-02T18:55:23.005Z,101460.31
2023-03-02T18:57:49.690Z,101454.69
2023-03-02T19:00:19.310Z,101459.53
2023-03-02T19:02:45.862Z,101470.97
2023-03-02T19:05:12.444Z,101466.03
2023-03-02T19:07:38.995Z,101467.91
2023-03-02T19:10:07.436Z,101473.44
2023-03-02T19:12:37.629Z,101466.94
2023-03-02T19:15:05.631Z,101477.00
2023-03-02T19:17:32.341Z,101481.38
2023-03-02T19:19:58.820Z,101476.59
2023-03-02T19:22:25.324Z,101478.44
2023-03-02T19:24:51.989Z,101482.41
2023-03-02T19:27:18.523Z,101482.50
2023-03-02T19:29:45.051Z,101477.84
2023-03-02T19:32:14.524Z,101481.25
2023-03-02T19:34:42.499Z,101493.69
2023-03-02T19:37:08.928Z,101494.31
2023-03-02T19:39:35.498Z,101492.59
2023-03-02T19:42:02.044Z,101502.72
2023-03-02T19:44:28.593Z,101505.28
2023-03-02T19:46:55.043Z,101503.44
2023-03-02T19:49:21.643Z,101479.81
2023-03-02T19:51:48.175Z,101499.66
2023-03-02T19:54:14.709Z,101507.56
2023-03-02T19:56:43.367Z,101495.13
2023-03-02T19:59:11.084Z,101507.84
2023-03-02T20:01:37.608Z,101510.97
2023-03-02T20:04:04.277Z,101510.44
2023-03-02T20:06:33.683Z,101509.28
2023-03-02T20:09:02.338Z,101517.63
2023-03-02T20:11:30.617Z,101511.00
2023-03-02T20:14:02.005Z,101514.69
2023-03-02T20:16:31.494Z,101508.88
2023-03-02T20:18:58.482Z,101517.22
2023-03-02T20:21:27.913Z,101513.84
2023-03-02T20:23:54.494Z,101511.28
2023-03-02T20:26:22.329Z,101509.44
2023-03-02T20:28:48.933Z,101512.72
2023-03-02T20:31:16.136Z,101516.41
2023-03-02T20:33:47.041Z,101516.09
2023-03-02T20:36:16.605Z,101528.94
2023-03-02T20:38:48.112Z,101531.50
2023-03-02T20:41:15.843Z,101530.38
2023-03-02T20:43:42.482Z,101527.09
2023-03-02T20:46:12.780Z,101532.19
2023-03-02T20:48:39.482Z,101532.19
2023-03-02T20:51:06.330Z,101535.72
2023-03-02T20:53:32.931Z,101538.69
2023-03-02T20:55:59.439Z,101537.00
2023-03-02T20:58:26.085Z,101531.63
2023-03-02T21:00:53.767Z,101538.69
2023-03-02T21:03:20.262Z,101542.06
2023-03-02T21:05:47.243Z,101538.97
2023-03-02T21:08:14.817Z,101551.94
2023-03-02T21:10:43.308Z,101548.38
2023-03-02T21:13:11.746Z,101548.50
2023-03-02T21:15:38.460Z,101553.59
2023-03-02T21:18:05.274Z,101550.66
2023-03-02T21:20:35.685Z,101559.25
2023-03-02T21:23:03.022Z,101562.66
2023-03-02T21:25:29.518Z,101548.97
2023-03-02T21:27:56.809Z,101555.28
2023-03-02T21:30:27.562Z,101550.16
2023-03-02T21:32:54.487Z,101544.91
2023-03-02T21:35:23.232Z,101540.75
2023-03-02T21:37:52.753Z,101536.16
2023-03-02T21:40:25.327Z,101532.59
2023-03-02T21:42:52.706Z,101532.06
2023-03-02T21:45:19.540Z,101536.91
2023-03-02T21:47:46.638Z,101539.84
2023-03-02T21:50:17.053Z,101546.22
2023-03-02T21:52:43.644Z,101533.59
2023-03-02T21:55:11.443Z,101526.69
2023-03-02T21:57:37.939Z,101540.28
2023-03-02T22:00:05.432Z,101552.16
2023-03-02T22:02:32.681Z,101545.88
2023-03-02T22:04:59.230Z,101545.69
2023-03-02T22:07:25.803Z,101546.44
2023-03-02T22:09:52.687Z,101550.16
2023-03-02T22:12:22.414Z,101546.41
2023-03-02T22:14:49.155Z,101548.97
2023-03-02T22:17:21.420Z,101545.19
2023-03-02T22:19:48.809Z,101550.47
2023-03-02T22:22:23.999Z,101545.72
2023-03-02T22:24:53.944Z,101546.47
2023-03-02T22:27:26.765Z,101537.63
2023-03-02T22:29:57.664Z,101539.84
2023-03-02T22:32:29.503Z,101545.69
2023-03-02T22:34:58.828Z,101541.69
2023-03-02T22:37:29.223Z,101543.63
2023-03-02T22:40:06.743Z,101543.28
2023-03-02T22:42:33.570Z,101545.22
2023-03-02T22:45:12.841Z,101534.28
2023-03-02T22:47:39.540Z,101541.69
2023-03-02T22:50:28.288Z,101535.25
2023-03-02T22:52:56.208Z,101533.78
2023-03-02T22:55:39.756Z,101502.09
2023-03-02T22:58:25.342Z,101534.91
2023-03-02T23:00:52.123Z,101542.06
2023-03-02T23:03:40.619Z,101536.72
2023-03-02T23:06:23.362Z,101542.19
2023-03-02T23:08:51.626Z,101546.69
2023-03-02T23:11:21.696Z,101545.22
2023-03-02T23:13:49.306Z,101551.28
2023-03-02T23:16:27.449Z,101555.91
2023-03-02T23:18:59.230Z,101551.53
2023-03-02T23:21:38.348Z,101556.16
2023-03-02T23:24:07.167Z,101551.16
2023-03-02T23:26:33.839Z,101555.06
2023-03-02T23:29:00.925Z,101553.13
2023-03-02T23:31:27.479Z,101552.28
2023-03-02T23:33:54.199Z,101552.03
2023-03-02T23:36:20.968Z,101559.09
2023-03-02T23:38:50.920Z,101558.84
2023-03-02T23:41:18.158Z,101564.66
2023-03-02T23:43:44.668Z,101567.44
2023-03-02T23:46:14.426Z,101567.84
2023-03-02T23:48:42.583Z,101556.41
2023-03-02T23:51:10.245Z,101562.47
2023-03-02T23:53:36.753Z,101560.06
2023-03-02T23:56:03.381Z,101567.78
2023-03-02T23:58:29.912Z,101566.38
